Scott AFB/Midamerica Airport
KBLV : now visible

Airfield :











YOU CAN JOIN US ON...

 
LOGIN :

Register | Disclaimer

   EN    FR    IT 

 









Legend :    VFR   Marginal VFR   IFR   Intensive IFR   Very Intensive IFR
Visi :
Ceiling :
>= 8 km
>= 3000ft
5 to 8 km
1000 to 3000 ft
1500m to 5 km
500 to 1000 ft
800 to 1500m
200 to 500 ft
< 800m
< 200 ft
Symbols :   Thunderstorms  Fog  Heavy snow  Heavy precipitations  Wind > 20 kt






- Airport Elevation : 459 ft


KBLV - Scott AFB/Midamerica

EXPIRED METARs :
  • 272141Z AUTO 04004KT 10SM -DZ BKN008 OVC012 05/05 A3018 RMK AO2 RAE37DZB37 CIG 008V010 CIG 006 RWY32L SLP226 $
  • 272131Z AUTO 01003KT 8SM -RA OVC010 05/05 A3019 RMK AO2 CIG 008V010 CIG 005 RWY32L SLP230 $
  • 272121Z AUTO 35003KT 5SM -RA OVC009 05/05 A3020 RMK AO2 CIG 007V009 CIG 006 RWY32L SLP233 $

TAF AMD TAF KBLV
Valid from the 27 at 21:00 until the 28 at 22:00 UTC


272135Z 2721/2822 35006KT 9000 -RA BKN010 QNH3017INS
TEMPO 2721/2724 BKN007
BECMG 2723/2724 35006KT 9999 NSW BKN015 QNH3011INS
BECMG 2817/2818 VRB06KT 9999 BKN020 QNH2996INS TX09/2815Z TN04/2805Z
KZKC FIR / North America



MET'MAP, your aeronautical weather chart ! - Copyright ORBIFLY December 2007 - Disclaimer

ORBIFLY MET'MAP TEAM :

Programming & Development : Alexandra Zaïnal
Concept & original design : Baudouin d'Aumeries
Assistance for programming : Marc-Olivier Méhu
Technical & hardware support : Manuel Goepfert

Contact : metmap@orbifly.com




SOURCES & CREDITS :

   NOAA       Earth
Advisory